createdAt,value
2023-02-25T00:01:09.430Z,19.08
2023-02-25T00:04:03.165Z,19.09
2023-02-25T00:06:56.870Z,19.07
2023-02-25T00:09:51.589Z,19.07
2023-02-25T00:12:41.372Z,19.09
2023-02-25T00:15:35.124Z,19.10
2023-02-25T00:18:31.022Z,19.10
2023-02-25T00:21:25.132Z,19.08
2023-02-25T00:24:19.287Z,19.06
2023-02-25T00:27:13.189Z,19.05
2023-02-25T00:30:12.383Z,19.06
2023-02-25T00:33:07.546Z,19.06
2023-02-25T00:36:01.990Z,19.09
2023-02-25T00:38:58.504Z,19.07
2023-02-25T00:41:53.986Z,19.05
2023-02-25T00:44:50.308Z,19.06
2023-02-25T00:47:44.128Z,19.04
2023-02-25T00:50:39.549Z,19.12
2023-02-25T00:53:33.606Z,19.06
2023-02-25T00:56:28.619Z,19.05
2023-02-25T00:59:22.643Z,19.08
2023-02-25T01:02:16.538Z,19.06
2023-02-25T01:05:10.923Z,19.04
2023-02-25T01:08:04.947Z,19.06
2023-02-25T01:10:58.686Z,19.08
2023-02-25T01:13:53.117Z,19.10
2023-02-25T01:16:47.432Z,19.07
2023-02-25T01:19:41.973Z,19.02
2023-02-25T01:22:35.660Z,19.02
2023-02-25T01:25:29.800Z,19.07
2023-02-25T01:28:23.836Z,19.00
2023-02-25T01:31:24.903Z,18.99
2023-02-25T01:34:20.254Z,19.00
2023-02-25T01:37:15.553Z,18.98
2023-02-25T01:40:16.440Z,18.95
2023-02-25T01:43:19.042Z,18.97
2023-02-25T01:46:13.032Z,18.96
2023-02-25T01:53:49.366Z,19.11
2023-02-25T01:57:08.135Z,19.09
2023-02-25T02:00:02.043Z,19.10
2023-02-25T02:02:58.428Z,19.01
2023-02-25T02:06:04.788Z,18.91
2023-02-25T02:09:00.129Z,18.97
2023-02-25T02:11:33.628Z,18.90
2023-02-25T02:14:31.501Z,18.92
2023-02-25T02:17:30.667Z,18.93
2023-02-25T02:20:30.755Z,18.98
2023-02-25T02:24:18.195Z,18.93
2023-02-25T02:27:15.647Z,18.92
2023-02-25T02:30:41.146Z,18.94
2023-02-25T02:33:45.854Z,18.90
2023-02-25T02:36:56.346Z,18.88
2023-02-25T02:40:05.721Z,18.90
2023-02-25T02:43:15.870Z,18.92
2023-02-25T02:46:14.900Z,18.90
2023-02-25T02:49:13.530Z,18.85
2023-02-25T02:52:18.180Z,18.85
2023-02-25T02:55:22.454Z,18.83
2023-02-25T02:58:23.363Z,18.83
2023-02-25T03:01:24.263Z,18.86
2023-02-25T03:04:25.182Z,18.86
2023-02-25T03:07:20.275Z,18.87
2023-02-25T03:10:21.214Z,18.85
2023-02-25T03:13:15.928Z,18.83
2023-02-25T03:16:14.695Z,18.81
2023-02-25T03:19:14.963Z,18.84
2023-02-25T03:22:13.655Z,18.86
2023-02-25T03:25:15.752Z,18.80
2023-02-25T03:28:23.185Z,18.78
2023-02-25T03:31:23.186Z,18.81
2023-02-25T03:34:22.344Z,18.79
2023-02-25T03:37:23.171Z,18.78
2023-02-25T03:40:21.212Z,18.80
2023-02-25T03:43:25.329Z,18.78
2023-02-25T03:46:21.371Z,18.81
2023-02-25T03:49:24.571Z,18.77
2023-02-25T03:52:22.913Z,18.78
2023-02-25T03:55:18.274Z,18.75
2023-02-25T03:58:12.850Z,18.76
2023-02-25T04:01:10.983Z,18.78
2023-02-25T04:04:04.736Z,18.72
2023-02-25T04:06:58.516Z,18.74
2023-02-25T04:09:52.197Z,18.70
2023-02-25T04:12:46.063Z,18.69
2023-02-25T04:15:40.821Z,18.70
2023-02-25T04:18:34.724Z,18.71
2023-02-25T04:21:35.343Z,18.74
2023-02-25T04:24:29.386Z,18.72
2023-02-25T04:27:23.500Z,18.71
2023-02-25T04:30:18.746Z,18.69
2023-02-25T04:33:14.226Z,18.67
2023-02-25T04:36:22.660Z,18.63
2023-02-25T04:39:18.143Z,18.64
2023-02-25T04:42:11.851Z,18.63
2023-02-25T04:45:06.390Z,18.65
2023-02-25T04:48:00.470Z,18.62
2023-02-25T04:50:59.105Z,18.63
2023-02-25T04:53:52.910Z,18.59
2023-02-25T04:56:47.158Z,18.62
2023-02-25T04:59:41.006Z,18.61
2023-02-25T05:02:35.067Z,18.61
2023-02-25T05:05:29.143Z,18.60
2023-02-25T05:08:23.718Z,18.57
2023-02-25T05:11:17.473Z,18.66
2023-02-25T05:14:11.505Z,18.76
2023-02-25T05:17:05.149Z,18.68
2023-02-25T05:19:59.673Z,18.66
2023-02-25T05:22:53.415Z,18.63
2023-02-25T05:25:47.074Z,18.59
2023-02-25T05:28:40.852Z,18.57
2023-02-25T05:31:34.998Z,18.55
2023-02-25T05:34:28.944Z,18.58
2023-02-25T05:37:22.619Z,18.56
2023-02-25T05:40:17.341Z,18.54
2023-02-25T05:43:11.236Z,18.54
2023-02-25T05:46:05.590Z,18.52
2023-02-25T05:48:59.292Z,18.51
2023-02-25T05:51:54.777Z,18.51
2023-02-25T05:54:48.484Z,18.49
2023-02-25T05:57:42.483Z,18.52
2023-02-25T06:00:36.429Z,18.49
2023-02-25T06:03:30.686Z,18.49
2023-02-25T06:06:26.959Z,18.47
2023-02-25T06:09:21.105Z,18.49
2023-02-25T06:12:15.026Z,18.50
2023-02-25T06:15:10.670Z,18.45
2023-02-25T06:18:04.348Z,18.47
2023-02-25T06:21:05.322Z,18.44
2023-02-25T06:23:59.304Z,18.41
2023-02-25T06:26:53.545Z,18.46
2023-02-25T06:29:50.066Z,18.44
2023-02-25T06:32:44.182Z,18.49
2023-02-25T06:35:39.258Z,18.66
2023-02-25T06:38:33.666Z,18.70
2023-02-25T06:41:27.472Z,18.75
2023-02-25T06:44:21.279Z,18.76
2023-02-25T06:47:15.132Z,18.72
2023-02-25T06:50:11.955Z,18.63
2023-02-25T06:53:05.733Z,18.57
2023-02-25T06:56:00.634Z,18.59
2023-02-25T06:58:54.363Z,18.53
2023-02-25T07:01:48.104Z,18.51
2023-02-25T07:04:43.981Z,18.48
2023-02-25T07:07:37.948Z,18.44
2023-02-25T07:10:31.769Z,18.43
2023-02-25T07:13:25.480Z,18.44
2023-02-25T07:16:20.575Z,18.38
2023-02-25T07:19:16.508Z,18.43
2023-02-25T07:22:12.851Z,18.43
2023-02-25T07:25:08.519Z,18.44
2023-02-25T07:28:02.513Z,18.40
2023-02-25T07:30:56.298Z,18.37
2023-02-25T07:33:50.488Z,18.38
2023-02-25T07:36:44.463Z,18.33
2023-02-25T07:39:38.419Z,18.34
2023-02-25T07:42:32.370Z,18.36
2023-02-25T07:45:26.268Z,18.33
2023-02-25T07:48:20.319Z,18.46
2023-02-25T07:51:18.551Z,18.45
2023-02-25T07:54:12.485Z,18.40
2023-02-25T07:57:06.496Z,18.53
2023-02-25T08:00:00.839Z,18.42
2023-02-25T08:02:37.366Z,18.55
2023-02-25T08:05:31.867Z,18.52
2023-02-25T08:08:26.322Z,18.42
2023-02-25T08:11:23.669Z,18.37
2023-02-25T08:14:16.289Z,18.37
2023-02-25T08:17:09.934Z,18.47
2023-02-25T08:20:05.825Z,18.44
2023-02-25T08:22:59.819Z,18.35
2023-02-25T08:25:56.797Z,18.40
2023-02-25T08:28:51.456Z,18.49
2023-02-25T08:31:46.889Z,18.53
2023-02-25T08:34:41.072Z,18.53
2023-02-25T08:37:34.982Z,18.47
2023-02-25T08:40:28.992Z,18.53
2023-02-25T08:43:22.753Z,18.42
2023-02-25T08:46:16.481Z,18.31
2023-02-25T08:49:10.999Z,18.40
2023-02-25T08:52:04.812Z,18.34
2023-02-25T08:54:58.578Z,18.32
2023-02-25T08:57:52.437Z,18.30
2023-02-25T09:00:46.980Z,18.27
2023-02-25T09:03:51.100Z,18.27
2023-02-25T09:06:30.189Z,18.28
2023-02-25T09:09:25.375Z,18.26
2023-02-25T09:12:19.197Z,18.42
2023-02-25T09:15:14.946Z,18.36
2023-02-25T09:18:09.581Z,18.34
2023-02-25T09:21:03.463Z,18.33
2023-02-25T09:23:58.451Z,18.29
2023-02-25T09:26:52.722Z,18.32
2023-02-25T09:29:46.627Z,18.43
2023-02-25T09:32:40.541Z,18.41
2023-02-25T09:35:34.472Z,18.28
2023-02-25T09:38:28.452Z,18.21
2023-02-25T09:41:34.733Z,18.15
2023-02-25T09:44:34.024Z,18.13
2023-02-25T09:47:35.451Z,18.12
2023-02-25T09:50:34.125Z,18.12
2023-02-25T09:53:42.771Z,18.05
2023-02-25T09:56:37.904Z,17.96
2023-02-25T09:59:32.861Z,18.03
2023-02-25T10:02:39.057Z,18.04
2023-02-25T10:05:44.269Z,18.05
2023-02-25T10:08:47.289Z,18.01
2023-02-25T10:11:53.662Z,18.02
2023-02-25T10:15:19.300Z,18.04
2023-02-25T10:18:34.246Z,18.02
2023-02-25T10:21:43.523Z,18.14
2023-02-25T10:24:45.370Z,18.16
2023-02-25T10:27:45.367Z,18.15
2023-02-25T10:30:57.668Z,18.16
2023-02-25T10:33:54.825Z,18.06
2023-02-25T10:36:55.728Z,18.07
2023-02-25T10:39:39.815Z,18.05
2023-02-25T10:42:34.950Z,18.08
2023-02-25T10:45:31.501Z,18.07
2023-02-25T10:48:26.996Z,18.07
2023-02-25T10:51:20.953Z,18.12
2023-02-25T10:54:16.622Z,18.10
2023-02-25T10:57:18.015Z,18.17
2023-02-25T11:00:28.862Z,18.22
2023-02-25T11:03:27.827Z,18.13
2023-02-25T11:06:29.616Z,18.11
2023-02-25T11:09:40.027Z,18.06
2023-02-25T11:12:43.693Z,17.99
2023-02-25T11:15:45.805Z,18.03
2023-02-25T11:18:28.321Z,18.00
2023-02-25T11:21:42.412Z,18.01
2023-02-25T11:24:39.351Z,18.02
2023-02-25T11:27:39.617Z,18.09
2023-02-25T11:30:38.657Z,18.09
2023-02-25T11:33:38.741Z,18.03
2023-02-25T11:36:37.542Z,18.02
2023-02-25T11:39:32.639Z,18.14
2023-02-25T11:42:30.158Z,18.11
2023-02-25T11:45:24.565Z,18.08
2023-02-25T11:48:26.316Z,18.03
2023-02-25T11:51:28.906Z,18.05
2023-02-25T11:54:36.385Z,18.09
2023-02-25T11:57:41.330Z,18.07
2023-02-25T12:00:47.262Z,18.12
2023-02-25T12:04:00.840Z,18.11
2023-02-25T12:07:25.261Z,18.08
2023-02-25T12:11:05.970Z,18.26
2023-02-25T12:17:58.389Z,18.25
2023-02-25T12:21:29.177Z,18.12
2023-02-25T12:25:12.356Z,18.11
2023-02-25T12:28:40.863Z,18.33
2023-02-25T12:32:28.977Z,18.42
2023-02-25T12:35:49.079Z,18.64
2023-02-25T12:39:42.026Z,18.73
2023-02-25T12:42:55.246Z,18.75
2023-02-25T12:46:16.506Z,18.71
2023-02-25T12:49:44.997Z,18.72
2023-02-25T12:52:51.898Z,18.88
2023-02-25T12:56:18.329Z,18.74
2023-02-25T12:59:47.157Z,18.64
2023-02-25T13:03:01.382Z,18.72
2023-02-25T13:06:41.218Z,18.69
2023-02-25T13:09:59.766Z,18.70
2023-02-25T13:13:27.017Z,18.63
2023-02-25T13:16:36.399Z,18.54
2023-02-25T13:20:28.113Z,18.49
2023-02-25T13:23:49.625Z,18.53
2023-02-25T13:27:15.144Z,18.75
2023-02-25T13:30:27.874Z,18.81
2023-02-25T13:33:51.388Z,18.88
2023-02-25T13:37:05.464Z,18.89
2023-02-25T13:40:37.297Z,18.76
2023-02-25T13:44:02.077Z,18.79
2023-02-25T13:47:11.170Z,18.84
2023-02-25T13:50:34.165Z,18.88
2023-02-25T13:53:57.214Z,18.88
2023-02-25T13:57:13.019Z,18.89
2023-02-25T14:00:51.443Z,18.68
2023-02-25T14:04:33.214Z,18.77
2023-02-25T14:07:50.076Z,18.71
2023-02-25T14:10:54.647Z,18.84
2023-02-25T14:14:19.881Z,18.91
2023-02-25T14:18:15.770Z,18.67
2023-02-25T14:21:49.992Z,18.59
2023-02-25T14:24:51.421Z,18.62
2023-02-25T14:27:55.879Z,18.70
2023-02-25T14:31:07.813Z,18.82
2023-02-25T14:34:29.988Z,18.53
2023-02-25T14:37:40.144Z,18.69
2023-02-25T14:40:42.225Z,18.64
2023-02-25T14:43:38.572Z,18.56
2023-02-25T14:46:42.985Z,18.47
2023-02-25T14:49:42.795Z,18.46
2023-02-25T14:53:11.274Z,18.38
2023-02-25T14:57:05.177Z,18.26
2023-02-25T15:00:41.621Z,18.24
2023-02-25T15:04:12.738Z,18.20
2023-02-25T15:07:25.255Z,18.23
2023-02-25T15:10:41.605Z,18.18
2023-02-25T15:13:55.988Z,18.16
2023-02-25T15:17:48.510Z,18.13
2023-02-25T15:20:44.564Z,18.10
2023-02-25T15:23:54.688Z,18.09
2023-02-25T15:26:51.779Z,18.07
2023-02-25T15:30:02.065Z,18.04
2023-02-25T15:33:12.264Z,18.01
2023-02-25T15:36:27.145Z,18.01
2023-02-25T15:39:56.650Z,17.99
2023-02-25T15:42:54.943Z,17.97
2023-02-25T15:45:51.012Z,17.96
2023-02-25T15:48:45.481Z,17.94
2023-02-25T15:51:51.444Z,17.93
2023-02-25T15:55:14.152Z,17.94
2023-02-25T15:58:53.283Z,17.89
2023-02-25T16:01:48.299Z,17.90
2023-02-25T16:04:51.769Z,17.90
2023-02-25T16:07:49.337Z,17.89
2023-02-25T16:10:46.066Z,17.86
2023-02-25T16:13:42.666Z,17.85
2023-02-25T16:16:41.858Z,17.86
2023-02-25T16:19:39.635Z,17.85
2023-02-25T16:22:33.824Z,17.90
2023-02-25T16:25:39.914Z,17.86
2023-02-25T16:28:44.880Z,17.83
2023-02-25T16:31:47.800Z,17.82
2023-02-25T16:34:52.025Z,17.79
2023-02-25T16:37:58.260Z,17.78
2023-02-25T16:40:53.009Z,17.77
2023-02-25T16:43:33.998Z,17.77
2023-02-25T16:46:52.205Z,17.76
2023-02-25T16:49:49.630Z,17.73
2023-02-25T16:52:50.495Z,17.70
2023-02-25T16:55:45.606Z,17.69
2023-02-25T16:58:39.588Z,17.68
2023-02-25T17:01:36.628Z,17.69
2023-02-25T17:04:34.556Z,17.66
2023-02-25T17:07:32.318Z,17.65
2023-02-25T17:10:33.524Z,17.66
2023-02-25T17:13:32.524Z,17.69
2023-02-25T17:16:30.937Z,17.68
2023-02-25T17:19:26.695Z,17.67
2023-02-25T17:22:24.011Z,17.67
2023-02-25T17:25:19.671Z,17.67
2023-02-25T17:28:22.634Z,17.63
2023-02-25T17:31:19.216Z,17.64
2023-02-25T17:34:21.266Z,17.63
2023-02-25T17:37:18.751Z,17.61
2023-02-25T17:40:16.570Z,17.57
2023-02-25T17:43:25.773Z,17.57
2023-02-25T17:46:25.017Z,17.56
2023-02-25T17:49:29.789Z,17.54
2023-02-25T17:52:26.797Z,17.52
2023-02-25T17:55:29.095Z,17.52
2023-02-25T17:58:26.259Z,17.47
2023-02-25T18:01:30.843Z,17.46
2023-02-25T18:04:36.946Z,17.43
2023-02-25T18:07:34.252Z,17.39
2023-02-25T18:11:04.806Z,17.39
2023-02-25T18:13:58.571Z,17.35
2023-02-25T18:16:54.420Z,17.35
2023-02-25T18:19:48.561Z,17.33
2023-02-25T18:22:49.266Z,17.31
2023-02-25T18:25:44.908Z,17.31
2023-02-25T18:28:28.916Z,17.29
2023-02-25T18:31:22.766Z,17.28
2023-02-25T18:34:16.497Z,17.27
2023-02-25T18:37:14.203Z,17.25
2023-02-25T18:40:07.381Z,17.24
2023-02-25T18:43:04.974Z,17.22
2023-02-25T18:45:59.589Z,17.20
2023-02-25T18:48:53.547Z,17.21
2023-02-25T18:51:47.870Z,17.20
2023-02-25T18:54:42.931Z,17.17
2023-02-25T18:57:36.979Z,17.18
2023-02-25T19:00:31.489Z,17.17
2023-02-25T19:03:30.083Z,17.17
2023-02-25T19:06:25.271Z,17.17
2023-02-25T19:09:19.379Z,17.13
2023-02-25T19:12:15.240Z,17.24
2023-02-25T19:15:17.823Z,17.20
2023-02-25T19:18:15.599Z,17.23
2023-02-25T19:21:13.120Z,17.19
2023-02-25T19:24:11.584Z,17.17
2023-02-25T19:27:07.849Z,17.17
2023-02-25T19:30:04.666Z,17.19
2023-02-25T19:33:02.882Z,17.23
2023-02-25T19:35:58.163Z,17.28
2023-02-25T19:38:52.837Z,17.31
2023-02-25T19:41:47.139Z,17.32
2023-02-25T19:44:41.916Z,17.36
2023-02-25T19:47:36.456Z,17.31
2023-02-25T19:50:34.764Z,17.32
2023-02-25T19:53:28.673Z,17.33
2023-02-25T19:56:22.544Z,17.26
2023-02-25T19:59:16.883Z,17.30
2023-02-25T20:02:14.058Z,17.25
2023-02-25T20:05:09.667Z,17.21
2023-02-25T20:08:04.168Z,17.21
2023-02-25T20:10:58.505Z,17.20
2023-02-25T20:13:52.375Z,17.22
2023-02-25T20:16:46.334Z,17.22
2023-02-25T20:19:40.518Z,17.24
2023-02-25T20:22:34.273Z,17.24
2023-02-25T20:25:30.224Z,17.23
2023-02-25T20:28:24.118Z,17.34
2023-02-25T20:31:20.179Z,17.30
2023-02-25T20:34:18.956Z,17.27
2023-02-25T20:37:20.290Z,17.24
2023-02-25T20:40:16.513Z,17.30
2023-02-25T20:43:11.923Z,17.29
2023-02-25T20:46:06.367Z,17.25
2023-02-25T20:49:00.730Z,17.25
2023-02-25T20:51:56.364Z,17.30
2023-02-25T20:54:50.738Z,17.31
2023-02-25T20:57:44.684Z,17.46
2023-02-25T21:00:38.987Z,17.34
2023-02-25T21:03:32.735Z,17.31
2023-02-25T21:06:28.615Z,17.32
2023-02-25T21:09:22.376Z,17.33
2023-02-25T21:12:16.056Z,17.35
2023-02-25T21:15:12.483Z,17.52
2023-02-25T21:18:06.291Z,17.47
2023-02-25T21:21:05.792Z,17.50
2023-02-25T21:23:59.516Z,17.54
2023-02-25T21:26:53.266Z,17.56
2023-02-25T21:29:47.110Z,17.62
2023-02-25T21:32:40.906Z,17.63
2023-02-25T21:35:34.742Z,17.65
2023-02-25T21:38:29.271Z,17.67
2023-02-25T21:41:23.130Z,17.74
2023-02-25T21:44:17.488Z,17.81
2023-02-25T21:47:11.351Z,17.92
2023-02-25T21:50:05.690Z,17.93
2023-02-25T21:52:59.631Z,17.97
2023-02-25T21:55:53.455Z,17.99
2023-02-25T21:58:47.540Z,17.93
2023-02-25T22:01:43.676Z,17.91
2023-02-25T22:04:37.530Z,17.91
2023-02-25T22:07:31.546Z,17.92
2023-02-25T22:10:25.734Z,17.94
2023-02-25T22:13:19.455Z,17.94
2023-02-25T22:16:15.126Z,18.09
2023-02-25T22:19:08.942Z,18.20
2023-02-25T22:22:02.645Z,18.32
2023-02-25T22:24:56.753Z,18.31
2023-02-25T22:27:39.866Z,18.25
2023-02-25T22:30:33.678Z,18.23
2023-02-25T22:33:27.456Z,18.25
2023-02-25T22:36:22.763Z,18.27
2023-02-25T22:39:17.662Z,18.27
2023-02-25T22:42:11.458Z,18.29
2023-02-25T22:45:05.483Z,18.33
2023-02-25T22:47:59.803Z,18.34
2023-02-25T22:50:53.672Z,18.39
2023-02-25T22:53:47.613Z,18.41
2023-02-25T22:56:41.423Z,18.38
2023-02-25T22:59:35.144Z,18.48
2023-02-25T23:02:28.904Z,18.54
2023-02-25T23:05:22.797Z,18.49
2023-02-25T23:08:17.007Z,18.43
2023-02-25T23:11:17.801Z,18.48
2023-02-25T23:14:11.794Z,18.47
2023-02-25T23:17:06.451Z,18.46
2023-02-25T23:20:00.306Z,18.43
2023-02-25T23:22:54.109Z,18.47
2023-02-25T23:25:54.398Z,18.47
2023-02-25T23:28:48.745Z,18.48
2023-02-25T23:31:45.527Z,18.46
2023-02-25T23:34:39.462Z,18.47
2023-02-25T23:37:35.430Z,18.56
2023-02-25T23:40:29.504Z,18.53
2023-02-25T23:43:23.408Z,18.51
2023-02-25T23:46:17.113Z,18.63
2023-02-25T23:49:12.642Z,18.64
2023-02-25T23:52:06.343Z,18.65
2023-02-25T23:55:00.073Z,18.61
2023-02-25T23:57:54.073Z,18.59
